Time;durP1;ratioP1;P1;durP2;ratioP2;P2;SDS_P1;SDS_P2;PMS_P1;PMS_P2;Temp;Humidity;BMP_temperature;BMP_pressure;BME280_temperature;BME280_humidity;BME280_pressure;Samples;Min_cycle;Max_cycle;Signal;HPM_P1;HPM_P2
2021/04/09 00:00:21;;;;;;;;;;;;;;;22.64;21.20;98612.97;5042981;28;1166;-76
2021/04/09 00:02:46;;;;;;;;;;;;;;;22.20;21.65;98612.22;5060294;28;879;-76
2021/04/09 00:05:12;;;;;;;;;;;;;;;21.76;22.30;98617.06;5059893;28;987;-76
2021/04/09 00:07:38;;;;;;;;;;;;;;;21.66;22.33;98623.69;5060054;28;590;-76
2021/04/09 00:10:04;;;;;;;;;;;;;;;21.98;22.29;98616.66;5059844;28;669;-76
2021/04/09 00:12:31;;;;;;;;;;;;;;;21.85;22.06;98620.09;5060199;28;602;-76
2021/04/09 00:14:57;;;;;;;;;;;;;;;21.65;22.37;98622.06;5059853;28;813;-76
2021/04/09 00:17:22;;;;;;;;;;;;;;;21.49;22.75;98624.78;5059642;28;1961;-76
2021/04/09 00:19:48;;;;;;;;;;;;;;;20.86;23.69;98622.47;5060013;28;868;-76
2021/04/09 00:22:13;;;;;;;;;;;;;;;21.64;22.35;98626.16;5059803;28;667;-76
2021/04/09 00:24:38;;;;;;;;;;;;;;;21.69;22.29;98622.81;5059801;28;648;-76
2021/04/09 00:27:04;;;;;;;;;;;;;;;21.43;22.53;98626.50;5060038;28;630;-76
2021/04/09 00:29:30;;;;;;;;;;;;;;;20.50;23.88;98627.78;5059375;28;986;-76
2021/04/09 00:31:55;;;;;;;;;;;;;;;20.66;23.75;98630.00;5059451;28;988;-76
2021/04/09 00:34:20;;;;;;;;;;;;;;;20.36;24.26;98625.06;5062004;28;967;-76
2021/04/09 00:36:46;;;;;;;;;;;;;;;20.81;23.56;98632.22;5063664;28;1898;-76
2021/04/09 00:39:11;;;;;;;;;;;;;;;20.96;23.26;98632.81;5064010;28;614;-76
2021/04/09 00:41:38;;;;;;;;;;;;;;;21.42;22.51;98627.72;5063702;28;706;-76
2021/04/09 00:44:04;;;;;;;;;;;;;;;21.24;22.76;98625.97;5063841;28;1011;-76
2021/04/09 00:46:29;;;;;;;;;;;;;;;20.59;23.78;98624.44;5063679;28;880;-76
2021/04/09 00:48:55;;;;;;;;;;;;;;;20.56;23.65;98623.25;5063375;28;1083;-76
2021/04/09 00:51:21;;;;;;;;;;;;;;;20.41;23.84;98624.63;5046276;28;1257;-76
2021/04/09 00:53:46;;;;;;;;;;;;;;;21.25;22.92;98638.88;5063212;28;634;-76
2021/04/09 00:56:13;;;;;;;;;;;;;;;21.14;22.93;98626.94;5063385;28;658;-76
2021/04/09 00:58:38;;;;;;;;;;;;;;;20.24;24.30;98632.09;5063145;28;1953;-76
2021/04/09 01:01:04;;;;;;;;;;;;;;;20.09;24.34;98631.44;5062971;28;838;-75
2021/04/09 01:03:30;;;;;;;;;;;;;;;21.31;22.69;98648.53;5062736;28;960;-76
2021/04/09 01:05:55;;;;;;;;;;;;;;;21.16;22.74;98641.44;5062690;28;674;-76
2021/04/09 01:08:21;;;;;;;;;;;;;;;20.79;23.39;98648.81;5063367;28;662;-76
2021/04/09 01:10:46;;;;;;;;;;;;;;;20.52;23.74;98643.09;5063017;28;653;-76
2021/04/09 01:13:12;;;;;;;;;;;;;;;21.01;23.21;98640.03;5063185;28;1091;-76
2021/04/09 01:15:37;;;;;;;;;;;;;;;20.83;23.18;98645.13;5062888;28;867;-76
2021/04/09 01:18:11;;;;;;;;;;;;;;;21.00;23.11;98644.09;5062061;28;1985;-76
2021/04/09 01:20:37;;;;;;;;;;;;;;;21.48;22.55;98646.63;5062377;28;727;-76
2021/04/09 01:23:11;;;;;;;;;;;;;;;21.40;22.60;98650.00;5063172;28;583;-76
2021/04/09 01:25:55;;;;;;;;;;;;;;;20.95;23.15;98644.56;5062893;28;767;-76
2021/04/09 01:28:21;;;;;;;;;;;;;;;20.96;23.20;98649.78;5062453;28;915;-76
2021/04/09 01:30:53;;;;;;;;;;;;;;;20.67;23.56;98657.03;5061745;28;840;-76
2021/04/09 01:33:23;;;;;;;;;;;;;;;20.68;23.26;98659.47;5062596;28;666;-76
2021/04/09 01:35:49;;;;;;;;;;;;;;;20.88;23.11;98658.78;5062071;28;607;-75
2021/04/09 01:38:15;;;;;;;;;;;;;;;20.32;23.57;98661.09;5062779;28;1945;-76
2021/04/09 01:40:41;;;;;;;;;;;;;;;20.56;23.65;98662.84;5062005;28;1390;-76
2021/04/09 01:43:07;;;;;;;;;;;;;;;20.53;23.50;98666.53;5061711;28;958;-76
2021/04/09 01:45:32;;;;;;;;;;;;;;;20.83;22.98;98673.41;5061619;28;832;-76
2021/04/09 01:47:58;;;;;;;;;;;;;;;20.79;22.98;98665.78;5062527;28;844;-76
2021/04/09 01:50:25;;;;;;;;;;;;;;;20.48;23.38;98666.97;5073396;28;1052;-76
2021/04/09 01:52:50;;;;;;;;;;;;;;;21.40;22.34;98664.16;5062445;28;832;-76
2021/04/09 01:55:16;;;;;;;;;;;;;;;21.46;21.96;98670.94;5078265;28;672;-76
2021/04/09 01:57:42;;;;;;;;;;;;;;;20.56;23.29;98671.31;5077866;28;1981;-76
2021/04/09 02:00:11;;;;;;;;;;;;;;;21.03;22.76;98671.53;5078086;28;917;-76
2021/04/09 02:02:37;;;;;;;;;;;;;;;20.91;22.90;98669.28;5062360;28;896;-76
2021/04/09 02:05:03;;;;;;;;;;;;;;;21.66;22.13;98677.50;5077752;28;960;-76
2021/04/09 02:07:28;;;;;;;;;;;;;;;22.67;20.72;98680.16;5062094;28;662;-76
2021/04/09 02:09:54;;;;;;;;;;;;;;;22.75;20.41;98687.28;5077549;28;862;-76
2021/04/09 02:12:19;;;;;;;;;;;;;;;22.44;20.76;98683.84;5077989;28;881;-76
2021/04/09 02:14:45;;;;;;;;;;;;;;;21.72;21.72;98678.63;5061975;28;874;-76
2021/04/09 02:17:10;;;;;;;;;;;;;;;21.56;21.90;98689.81;5061779;28;1995;-75
2021/04/09 02:19:39;;;;;;;;;;;;;;;21.98;21.47;98691.13;5078058;28;694;-77
2021/04/09 02:22:05;;;;;;;;;;;;;;;22.32;20.94;98681.63;5062121;28;593;-76
2021/04/09 02:24:30;;;;;;;;;;;;;;;22.49;20.55;98679.72;5061722;28;645;-76
2021/04/09 02:26:56;;;;;;;;;;;;;;;22.03;21.15;98681.34;5061539;28;831;-76
2021/04/09 02:29:21;;;;;;;;;;;;;;;21.67;21.50;98684.78;5077622;28;889;-76
2021/04/09 02:31:48;;;;;;;;;;;;;;;21.24;22.33;98679.75;5061484;28;928;-76
2021/04/09 02:34:13;;;;;;;;;;;;;;;22.36;20.65;98683.19;5061836;28;614;-76
2021/04/09 02:36:39;;;;;;;;;;;;;;;22.66;20.41;98689.09;5061524;28;666;-76
2021/04/09 02:39:05;;;;;;;;;;;;;;;21.98;21.28;98687.50;5077250;28;1969;-76
2021/04/09 02:41:33;;;;;;;;;;;;;;;21.78;21.71;98688.22;5077058;28;1016;-76
2021/04/09 02:43:58;;;;;;;;;;;;;;;21.86;21.51;98694.56;5061359;28;817;-76
2021/04/09 02:46:27;;;;;;;;;;;;;;;21.40;22.14;98689.63;5077148;28;1291;-76
2021/04/09 02:48:53;;;;;;;;;;;;;;;21.84;21.39;98695.00;5061168;28;1005;-76
2021/04/09 02:51:19;;;;;;;;;;;;;;;21.55;22.08;98691.00;5061400;28;670;-76
2021/04/09 02:53:44;;;;;;;;;;;;;;;21.45;21.82;98697.63;5059811;28;861;-76
2021/04/09 02:56:12;;;;;;;;;;;;;;;21.37;22.13;98699.78;5059783;28;914;-76
2021/04/09 02:58:37;;;;;;;;;;;;;;;21.21;22.44;98705.25;5060820;28;1906;-76
2021/04/09 03:01:03;;;;;;;;;;;;;;;21.36;22.23;98705.88;5060857;28;824;-76
2021/04/09 03:03:28;;;;;;;;;;;;;;;20.97;22.87;98712.84;5060991;28;670;-76
2021/04/09 03:05:53;;;;;;;;;;;;;;;20.69;22.98;98702.69;5060272;28;709;-76
2021/04/09 03:08:19;;;;;;;;;;;;;;;21.43;21.74;98712.22;5043849;28;1380;-76
2021/04/09 03:10:45;;;;;;;;;;;;;;;20.91;22.68;98706.84;5060076;28;962;-75
2021/04/09 03:13:10;;;;;;;;;;;;;;;20.45;23.28;98710.19;5060729;28;927;-76
2021/04/09 03:15:57;;;;;;;;;;;;;;;20.21;23.61;98718.50;5060963;28;840;-76
2021/04/09 03:18:23;;;;;;;;;;;;;;;21.35;22.10;98715.59;5060684;28;1969;-76
2021/04/09 03:20:48;;;;;;;;;;;;;;;21.29;22.09;98713.19;5060639;28;807;-76
2021/04/09 03:23:14;;;;;;;;;;;;;;;21.30;21.95;98720.53;5060586;28;677;-76
2021/04/09 03:25:39;;;;;;;;;;;;;;;20.70;22.84;98722.06;5060225;28;986;-76
2021/04/09 03:28:05;;;;;;;;;;;;;;;20.60;22.72;98731.47;5060192;28;902;-76
2021/04/09 03:30:31;;;;;;;;;;;;;;;21.32;22.22;98729.38;5060883;28;852;-76
2021/04/09 03:32:56;;;;;;;;;;;;;;;21.19;22.08;98721.84;5060702;28;602;-76
2021/04/09 03:35:22;;;;;;;;;;;;;;;20.59;22.83;98732.69;5060707;28;642;-76
2021/04/09 03:37:47;;;;;;;;;;;;;;;20.65;23.04;98736.66;5060296;28;1965;-76
2021/04/09 03:40:13;;;;;;;;;;;;;;;21.12;22.41;98739.72;5060094;28;1012;-76
2021/04/09 03:42:38;;;;;;;;;;;;;;;21.32;22.10;98732.22;5060218;28;897;-76
2021/04/09 03:45:04;;;;;;;;;;;;;;;21.12;22.15;98741.75;5060131;28;833;-76
2021/04/09 03:47:30;;;;;;;;;;;;;;;21.34;22.28;98737.44;5060532;28;718;-76
2021/04/09 03:49:55;;;;;;;;;;;;;;;21.38;22.08;98741.03;5060378;28;1067;-75
2021/04/09 03:52:21;;;;;;;;;;;;;;;20.80;22.84;98748.59;5060427;28;668;-76
2021/04/09 03:54:46;;;;;;;;;;;;;;;20.39;23.46;98740.13;5042615;28;1175;-76
2021/04/09 03:57:12;;;;;;;;;;;;;;;21.09;22.32;98754.75;5059782;28;1926;-76
2021/04/09 03:59:37;;;;;;;;;;;;;;;20.98;22.63;98754.84;5060283;28;979;-76
2021/04/09 04:02:03;;;;;;;;;;;;;;;20.89;23.00;98759.44;5060025;28;614;-76
2021/04/09 04:04:28;;;;;;;;;;;;;;;21.49;22.02;98755.03;5060130;28;652;-76
2021/04/09 04:06:54;;;;;;;;;;;;;;;22.27;20.93;98759.47;5060015;28;547;-76
2021/04/09 04:09:19;;;;;;;;;;;;;;;22.44;20.80;98756.78;5058488;28;940;-76
2021/04/09 04:11:45;;;;;;;;;;;;;;;22.18;20.91;98756.41;5059700;28;929;-76
2021/04/09 04:14:10;;;;;;;;;;;;;;;21.75;21.40;98761.91;5059832;28;972;-76
2021/04/09 04:16:35;;;;;;;;;;;;;;;21.55;21.76;98758.97;5059794;28;735;-76
2021/04/09 04:19:01;;;;;;;;;;;;;;;21.79;21.49;98763.47;5059709;28;1906;-76
2021/04/09 04:21:26;;;;;;;;;;;;;;;22.68;20.47;98766.84;5060234;28;634;-75
2021/04/09 04:23:52;;;;;;;;;;;;;;;22.38;20.98;98767.00;5059606;28;927;-75
2021/04/09 04:26:17;;;;;;;;;;;;;;;21.72;21.77;98780.59;5059409;28;822;-76
2021/04/09 04:28:43;;;;;;;;;;;;;;;21.65;21.66;98774.22;5042528;28;1110;-76
2021/04/09 04:31:09;;;;;;;;;;;;;;;21.50;21.88;98782.09;5059922;28;767;-76
2021/04/09 04:33:34;;;;;;;;;;;;;;;21.95;21.37;98776.19;5059870;28;622;-76
2021/04/09 04:36:00;;;;;;;;;;;;;;;22.24;21.00;98783.03;5059685;28;658;-76
2021/04/09 04:38:26;;;;;;;;;;;;;;;22.28;20.71;98783.78;5059448;28;1973;-76
2021/04/09 04:40:52;;;;;;;;;;;;;;;22.49;20.72;98776.16;5058780;28;1322;-76
2021/04/09 04:43:17;;;;;;;;;;;;;;;22.08;21.16;98786.50;5059523;28;858;-76
2021/04/09 04:45:43;;;;;;;;;;;;;;;21.75;21.38;98788.22;5058658;28;798;-75
2021/04/09 04:48:09;;;;;;;;;;;;;;;21.48;22.03;98793.88;5059409;28;658;-75
2021/04/09 04:50:34;;;;;;;;;;;;;;;21.48;21.89;98799.53;5059377;28;989;-76
2021/04/09 04:53:00;;;;;;;;;;;;;;;22.33;20.80;98796.66;5059232;28;1062;-76
2021/04/09 04:55:26;;;;;;;;;;;;;;;22.82;20.22;98794.97;5059087;28;916;-76
2021/04/09 04:57:51;;;;;;;;;;;;;;;22.06;21.08;98793.81;5059631;28;1902;-76
2021/04/09 05:00:17;;;;;;;;;;;;;;;21.82;21.60;98802.28;5059370;28;682;-76
2021/04/09 05:02:42;;;;;;;;;;;;;;;21.57;21.90;98801.84;5059750;28;607;-76
2021/04/09 05:05:08;;;;;;;;;;;;;;;22.07;21.28;98806.75;5059417;28;646;-76
2021/04/09 05:07:34;;;;;;;;;;;;;;;22.38;20.74;98803.84;5059023;28;941;-76
2021/04/09 05:09:59;;;;;;;;;;;;;;;22.59;20.48;98804.31;5058971;28;1073;-76
2021/04/09 05:12:24;;;;;;;;;;;;;;;22.11;21.07;98801.88;5059366;28;966;-76
2021/04/09 05:14:50;;;;;;;;;;;;;;;21.82;21.41;98813.63;5059268;28;749;-76
2021/04/09 05:17:16;;;;;;;;;;;;;;;21.66;21.46;98813.47;5059464;28;1902;-75
2021/04/09 05:19:41;;;;;;;;;;;;;;;21.88;21.32;98813.16;5060029;28;592;-75
2021/04/09 05:22:07;;;;;;;;;;;;;;;22.28;21.01;98812.13;5062842;28;857;-76
2021/04/09 05:24:32;;;;;;;;;;;;;;;22.41;20.58;98823.66;5063282;28;971;-76
2021/04/09 05:26:57;;;;;;;;;;;;;;;22.55;20.49;98831.13;5062740;28;897;-76
2021/04/09 05:29:23;;;;;;;;;;;;;;;22.34;20.68;98827.41;5062633;28;655;-76
2021/04/09 05:31:49;;;;;;;;;;;;;;;21.82;21.46;98841.16;5063043;28;618;-76
2021/04/09 05:34:15;;;;;;;;;;;;;;;21.59;21.69;98836.19;5061711;28;816;-76
2021/04/09 05:36:40;;;;;;;;;;;;;;;21.62;21.82;98846.69;5062624;28;831;-76
2021/04/09 05:39:06;;;;;;;;;;;;;;;21.66;21.81;98838.94;5062613;28;1991;-76
2021/04/09 05:41:31;;;;;;;;;;;;;;;21.53;21.73;98846.41;5062796;28;832;-76
2021/04/09 05:43:56;;;;;;;;;;;;;;;21.44;21.86;98848.94;5062560;28;626;-76
2021/04/09 05:46:22;;;;;;;;;;;;;;;21.53;21.78;98852.06;5062436;28;614;-76
2021/04/09 05:48:47;;;;;;;;;;;;;;;21.46;22.10;98857.81;5062268;28;1055;-76
2021/04/09 05:51:13;;;;;;;;;;;;;;;21.75;21.95;98864.69;5062162;28;894;-76
2021/04/09 05:53:39;;;;;;;;;;;;;;;22.23;20.90;98860.03;5062349;28;908;-76
2021/04/09 05:56:05;;;;;;;;;;;;;;;22.51;20.54;98870.09;5062274;28;626;-75
2021/04/09 05:58:30;;;;;;;;;;;;;;;22.17;20.90;98861.72;5062142;28;1979;-76
2021/04/09 06:00:56;;;;;;;;;;;;;;;21.76;21.74;98869.16;5062239;28;611;-76
2021/04/09 06:03:21;;;;;;;;;;;;;;;21.53;21.96;98866.22;5062164;28;698;-76
2021/04/09 06:05:47;;;;;;;;;;;;;;;21.52;21.98;98867.44;5062103;28;864;-76
2021/04/09 06:08:12;;;;;;;;;;;;;;;21.99;21.50;98867.63;5062023;28;1078;-75
2021/04/09 06:10:38;;;;;;;;;;;;;;;22.31;21.14;98867.97;5061900;28;813;-76
2021/04/09 06:13:03;;;;;;;;;;;;;;;22.62;20.42;98876.38;5061920;28;607;-75
2021/04/09 06:15:29;;;;;;;;;;;;;;;22.09;21.28;98872.34;5061545;28;634;-75
2021/04/09 06:17:54;;;;;;;;;;;;;;;21.78;21.74;98880.84;5062298;28;1969;-75
2021/04/09 06:20:20;;;;;;;;;;;;;;;21.63;21.75;98890.78;5061840;28;852;-76
2021/04/09 06:22:48;;;;;;;;;;;;;;;21.49;22.15;98885.28;5061399;28;816;-75
2021/04/09 06:25:14;;;;;;;;;;;;;;;22.39;21.14;98893.38;5061825;28;903;-76
2021/04/09 06:27:39;;;;;;;;;;;;;;;22.43;21.06;98885.59;5062263;28;630;-74
2021/04/09 06:30:05;;;;;;;;;;;;;;;21.99;21.44;98898.78;5044693;28;1125;-76
2021/04/09 06:32:31;;;;;;;;;;;;;;;21.76;21.68;98900.31;5060609;28;995;-75
2021/04/09 06:34:56;;;;;;;;;;;;;;;21.56;22.08;98900.16;5061539;28;805;-75
2021/04/09 06:37:21;;;;;;;;;;;;;;;21.38;21.72;98854.25;5061696;28;1894;-76
2021/04/09 06:39:47;;;;;;;;;;;;;;;21.64;21.80;98909.34;5061534;28;641;-76
2021/04/09 06:42:14;;;;;;;;;;;;;;;21.57;21.93;98900.97;5061547;28;658;-76
2021/04/09 06:44:40;;;;;;;;;;;;;;;21.55;22.00;98911.91;5058624;28;1289;-76
2021/04/09 06:47:06;;;;;;;;;;;;;;;21.59;22.01;98907.00;5061339;28;966;-77
2021/04/09 06:49:31;;;;;;;;;;;;;;;21.39;22.22;98920.19;5060833;28;958;-77
2021/04/09 06:51:56;;;;;;;;;;;;;;;21.73;21.94;98918.16;5061529;28;988;-76
2021/04/09 06:54:22;;;;;;;;;;;;;;;22.21;21.22;98931.28;5061519;28;706;-77
2021/04/09 06:56:48;;;;;;;;;;;;;;;22.41;20.83;98939.13;5061568;28;598;-76
2021/04/09 06:59:15;;;;;;;;;;;;;;;22.22;21.49;98944.22;5060276;28;1996;-76
2021/04/09 07:01:41;;;;;;;;;;;;;;;21.72;21.97;98939.22;5060244;28;862;-76
2021/04/09 07:04:16;;;;;;;;;;;;;;;21.58;22.20;98934.50;5060785;28;881;-76
2021/04/09 07:06:45;;;;;;;;;;;;;;;21.67;21.83;98942.50;5060458;28;686;-76
2021/04/09 07:09:14;;;;;;;;;;;;;;;21.57;22.06;98941.41;5061072;28;606;-76
2021/04/09 07:11:41;;;;;;;;;;;;;;;21.55;22.08;98945.88;5061033;28;841;-76
2021/04/09 07:14:08;;;;;;;;;;;;;;;21.52;22.37;98946.72;5060253;28;594;-76
2021/04/09 07:16:34;;;;;;;;;;;;;;;21.40;22.22;98945.25;5060736;28;875;-76
2021/04/09 07:19:04;;;;;;;;;;;;;;;21.72;22.28;98942.06;5060653;28;1884;-76
2021/04/09 07:21:32;;;;;;;;;;;;;;;22.18;21.35;98954.03;5060308;28;940;-76
2021/04/09 07:24:13;;;;;;;;;;;;;;;22.36;21.06;98961.03;5060646;28;594;-77
2021/04/09 07:26:40;;;;;;;;;;;;;;;22.04;21.74;98961.47;5061410;28;809;-76
2021/04/09 07:29:06;;;;;;;;;;;;;;;21.71;21.92;98954.63;5060568;28;607;-77
2021/04/09 07:31:33;;;;;;;;;;;;;;;21.71;22.19;98960.28;5060371;28;948;-76
2021/04/09 07:33:59;;;;;;;;;;;;;;;21.63;22.33;98964.41;5060699;28;797;-77
2021/04/09 07:36:25;;;;;;;;;;;;;;;21.41;22.52;98963.03;5060928;28;797;-76
2021/04/09 07:38:51;;;;;;;;;;;;;;;21.49;22.55;98959.69;5061017;28;1909;-76
2021/04/09 07:41:16;;;;;;;;;;;;;;;22.12;21.51;98961.41;5060493;28;826;-76
2021/04/09 07:43:44;;;;;;;;;;;;;;;22.36;21.57;98966.72;5060041;28;644;-77
2021/04/09 07:46:19;;;;;;;;;;;;;;;22.71;20.73;98961.75;5059689;28;896;-76
2021/04/09 07:48:45;;;;;;;;;;;;;;;22.12;21.74;98975.56;5059139;28;962;-77
2021/04/09 07:51:16;;;;;;;;;;;;;;;21.90;21.85;98969.34;5060361;28;825;-77
2021/04/09 07:53:42;;;;;;;;;;;;;;;21.80;22.02;98973.91;5060007;28;638;-76
2021/04/09 07:56:08;;;;;;;;;;;;;;;21.64;22.11;98977.34;5060708;28;602;-76
2021/04/09 07:58:34;;;;;;;;;;;;;;;21.61;22.13;98972.53;5059874;28;1902;-77
2021/04/09 08:00:59;;;;;;;;;;;;;;;21.57;22.40;98972.56;5060117;28;922;-77
2021/04/09 08:03:28;;;;;;;;;;;;;;;21.46;22.63;98971.09;5060061;28;841;-76
2021/04/09 08:06:03;;;;;;;;;;;;;;;21.50;22.35;98974.66;5060059;28;989;-76
2021/04/09 08:08:29;;;;;;;;;;;;;;;21.43;22.71;98971.91;5060161;28;594;-76
2021/04/09 08:10:54;;;;;;;;;;;;;;;21.54;22.58;98979.06;5060090;28;653;-76
2021/04/09 08:13:20;;;;;;;;;;;;;;;22.09;21.58;98980.03;5059871;28;674;-76
2021/04/09 08:15:45;;;;;;;;;;;;;;;22.51;21.41;98987.16;5059170;28;999;-76
2021/04/09 08:18:11;;;;;;;;;;;;;;;22.25;21.58;98983.09;5059483;28;1906;-76
2021/04/09 08:20:46;;;;;;;;;;;;;;;21.81;22.06;98987.69;5060300;28;1053;-77
2021/04/09 08:23:12;;;;;;;;;;;;;;;21.64;22.14;98983.00;5059840;28;595;-77
2021/04/09 08:25:38;;;;;;;;;;;;;;;21.53;22.53;98987.97;5060182;28;769;-76
2021/04/09 08:28:05;;;;;;;;;;;;;;;22.09;21.69;98985.72;5059685;28;899;-77
2021/04/09 08:30:31;;;;;;;;;;;;;;;22.30;21.29;98976.94;5059772;28;1024;-76
2021/04/09 08:32:57;;;;;;;;;;;;;;;22.17;21.66;98986.44;5059462;28;939;-76
2021/04/09 08:35:23;;;;;;;;;;;;;;;21.79;21.82;98989.31;5059733;28;825;-76
2021/04/09 08:37:49;;;;;;;;;;;;;;;21.77;22.38;98992.56;5059655;28;1976;-76
2021/04/09 08:40:15;;;;;;;;;;;;;;;21.60;22.25;98993.56;5059777;28;657;-76
2021/04/09 08:42:40;;;;;;;;;;;;;;;21.61;22.49;98989.53;5059802;28;606;-76
2021/04/09 08:45:06;;;;;;;;;;;;;;;21.49;22.51;98998.53;5058650;28;1084;-76
2021/04/09 08:47:31;;;;;;;;;;;;;;;21.53;22.41;98987.97;5058957;28;906;-77
2021/04/09 08:49:57;;;;;;;;;;;;;;;21.57;22.68;98980.25;5067021;28;978;-77
2021/04/09 08:52:23;;;;;;;;;;;;;;;21.63;22.03;98981.41;5075814;28;859;-77
2021/04/09 08:54:52;;;;;;;;;;;;;;;21.59;22.15;98991.97;5060543;28;650;-76
2021/04/09 08:57:27;;;;;;;;;;;;;;;22.05;21.72;98985.75;5079893;28;1914;-76
2021/04/09 09:00:01;;;;;;;;;;;;;;;22.42;21.43;98995.41;5063449;28;879;-77
2021/04/09 09:02:28;;;;;;;;;;;;;;;22.41;21.05;98993.00;5063238;28;897;-76
2021/04/09 09:04:56;;;;;;;;;;;;;;;22.10;21.65;98985.31;5063386;28;646;-76
2021/04/09 09:07:40;;;;;;;;;;;;;;;21.88;21.94;98980.31;5063401;28;663;-77
2021/04/09 09:10:29;;;;;;;;;;;;;;;21.59;22.25;98986.28;5063133;28;718;-76
2021/04/09 09:13:08;;;;;;;;;;;;;;;21.55;22.23;98977.03;5057584;28;1529;-76
2021/04/09 09:15:42;;;;;;;;;;;;;;;21.56;22.21;98982.28;5063078;28;1006;-76
2021/04/09 09:18:23;;;;;;;;;;;;;;;21.71;22.33;98982.94;5062736;28;1979;-76
2021/04/09 09:21:11;;;;;;;;;;;;;;;21.60;22.25;98982.22;5062363;28;635;-76
2021/04/09 09:23:46;;;;;;;;;;;;;;;21.44;22.40;98984.84;5062886;28;654;-76
2021/04/09 09:26:30;;;;;;;;;;;;;;;21.52;22.44;98983.53;5062956;28;742;-76
2021/04/09 09:29:14;;;;;;;;;;;;;;;21.49;22.28;98987.22;5062846;28;733;-75
2021/04/09 09:31:45;;;;;;;;;;;;;;;21.59;22.19;98983.47;5062541;28;874;-76
2021/04/09 09:34:17;;;;;;;;;;;;;;;21.54;22.44;98983.91;5062490;28;851;-76
2021/04/09 09:37:01;;;;;;;;;;;;;;;21.61;22.20;98981.03;5062692;28;654;-76
2021/04/09 09:39:48;;;;;;;;;;;;;;;21.56;22.19;98976.63;5062468;28;2010;-75
2021/04/09 09:42:20;;;;;;;;;;;;;;;21.47;22.58;98972.69;5062614;28;670;-76
2021/04/09 09:44:54;;;;;;;;;;;;;;;21.53;22.15;98976.66;5061442;28;1448;-75
2021/04/09 09:47:26;;;;;;;;;;;;;;;21.58;22.07;98979.81;5042586;28;698;-76
2021/04/09 09:50:05;;;;;;;;;;;;;;;21.65;22.28;98978.94;5048649;28;1060;-76
2021/04/09 09:52:49;;;;;;;;;;;;;;;21.60;22.29;98976.56;5062310;28;852;-75
2021/04/09 09:55:14;;;;;;;;;;;;;;;21.55;22.16;98974.19;5062427;28;686;-76
2021/04/09 09:57:43;;;;;;;;;;;;;;;21.57;22.17;98983.09;5062318;28;1902;-75
2021/04/09 10:00:09;;;;;;;;;;;;;;;21.45;22.32;98980.78;5061871;28;1234;-74
2021/04/09 10:02:34;;;;;;;;;;;;;;;21.54;22.43;98973.41;5062041;28;904;-76
2021/04/09 10:05:00;;;;;;;;;;;;;;;21.65;21.94;98973.28;5061613;28;1147;-76
2021/04/09 10:07:25;;;;;;;;;;;;;;;21.63;22.50;98974.94;5044807;28;1155;-79
2021/04/09 10:17:40;;;;;;;;;;;;;;;20.40;24.74;98973.53;5129210;27;1191;-76
2021/04/09 10:20:06;;;;;;;;;;;;;;;21.65;22.86;98973.28;5114728;28;1378;-77
2021/04/09 10:22:32;;;;;;;;;;;;;;;21.77;22.62;98977.59;5098835;28;1250;-76
2021/04/09 10:24:58;;;;;;;;;;;;;;;21.55;23.08;98974.19;5113702;28;1281;-79
2021/04/09 10:27:26;;;;;;;;;;;;;;;22.24;22.03;98981.47;5117193;28;1257;-73
2021/04/09 10:29:51;;;;;;;;;;;;;;;22.37;22.10;98978.88;5082860;28;1364;-73
2021/04/09 10:32:21;;;;;;;;;;;;;;;22.22;22.02;98977.44;5099232;28;1223;-76
2021/04/09 10:34:47;;;;;;;;;;;;;;;22.58;21.90;98975.72;5116823;28;1254;-79
2021/04/09 10:37:22;;;;;;;;;;;;;;;22.09;22.47;98974.38;5099174;28;1903;-78
2021/04/09 10:39:48;;;;;;;;;;;;;;;22.30;21.89;98974.09;5099425;28;1270;-79
2021/04/09 10:42:13;;;;;;;;;;;;;;;22.63;21.85;98974.44;5082297;28;1389;-82
2021/04/09 10:44:40;;;;;;;;;;;;;;;22.40;22.09;98968.72;5098831;28;1414;-76
2021/04/09 10:47:07;;;;;;;;;;;;;;;22.44;22.21;98966.63;5099361;28;1349;-76
2021/04/09 10:49:36;;;;;;;;;;;;;;;22.26;22.39;98966.88;5112412;28;1363;-80
2021/04/09 10:52:05;;;;;;;;;;;;;;;21.74;23.23;98976.41;5082710;28;1333;-81
2021/04/09 10:54:30;;;;;;;;;;;;;;;21.22;23.86;98972.91;5116867;28;1274;-84
2021/04/09 10:56:57;;;;;;;;;;;;;;;20.49;25.10;98971.06;5096473;28;1882;-80
2021/04/09 10:59:29;;;;;;;;;;;;;;;20.86;24.45;98966.75;5099442;28;1266;-83
2021/04/09 11:01:55;;;;;;;;;;;;;;;20.57;24.53;98966.16;5100056;28;697;-83
2021/04/09 11:04:20;;;;;;;;;;;;;;;20.38;24.97;98970.31;5117068;28;952;-83
2021/04/09 11:06:49;;;;;;;;;;;;;;;20.24;25.24;98972.00;5099270;28;891;-83
2021/04/09 11:09:15;;;;;;;;;;;;;;;20.35;24.96;98971.13;5099385;28;1062;-83
2021/04/09 11:11:41;;;;;;;;;;;;;;;20.11;25.22;98972.91;5099514;28;673;-82
2021/04/09 11:14:07;;;;;;;;;;;;;;;20.81;24.03;98962.34;5099717;28;642;-82
2021/04/09 11:16:51;;;;;;;;;;;;;;;21.32;23.34;98964.31;5099439;28;1886;-83
2021/04/09 11:19:36;;;;;;;;;;;;;;;21.37;23.30;98967.94;5116620;28;915;-83
2021/04/09 11:22:05;;;;;;;;;;;;;;;20.68;24.07;98967.72;5099081;28;868;-83
2021/04/09 11:24:33;;;;;;;;;;;;;;;20.36;24.29;98962.22;5099270;28;863;-82
2021/04/09 11:26:58;;;;;;;;;;;;;;;20.43;24.43;98958.56;5097858;28;914;-82
2021/04/09 11:29:25;;;;;;;;;;;;;;;20.40;24.60;98959.38;5085350;28;658;-83
2021/04/09 11:31:50;;;;;;;;;;;;;;;21.33;23.07;98946.13;5069060;28;893;-83
2021/04/09 11:34:16;;;;;;;;;;;;;;;21.44;23.04;98948.03;5085393;28;849;-83
2021/04/09 11:36:42;;;;;;;;;;;;;;;21.12;23.21;98946.31;5085408;28;1972;-83
2021/04/09 11:39:09;;;;;;;;;;;;;;;20.87;23.58;98940.06;5102913;28;848;-83
2021/04/09 11:41:35;;;;;;;;;;;;;;;20.74;23.62;98945.44;5085672;28;751;-83
2021/04/09 11:44:01;;;;;;;;;;;;;;;20.60;23.72;98943.53;5085396;28;892;-83
2021/04/09 11:46:33;;;;;;;;;;;;;;;20.74;23.72;98942.63;5068731;28;1142;-82
2021/04/09 11:48:59;;;;;;;;;;;;;;;21.12;23.04;98940.66;5085042;28;920;-83
2021/04/09 11:51:24;;;;;;;;;;;;;;;21.22;22.90;98951.06;5068388;28;1197;-83
2021/04/09 11:54:03;;;;;;;;;;;;;;;20.74;23.82;98953.94;5085353;28;829;-83
2021/04/09 11:56:41;;;;;;;;;;;;;;;20.46;24.07;98954.91;5085012;28;1910;-83
2021/04/09 11:59:12;;;;;;;;;;;;;;;20.44;24.10;98951.69;5102794;28;665;-83
2021/04/09 12:01:38;;;;;;;;;;;;;;;20.39;24.39;98946.47;5084928;28;758;-83
2021/04/09 12:04:07;;;;;;;;;;;;;;;21.21;23.00;98943.78;5102288;28;982;-83
2021/04/09 12:06:36;;;;;;;;;;;;;;;21.43;22.78;98949.25;5085180;28;829;-83
2021/04/09 12:09:03;;;;;;;;;;;;;;;20.81;23.51;98949.00;5084896;28;974;-83
2021/04/09 12:11:28;;;;;;;;;;;;;;;20.68;23.54;98945.09;5068930;28;910;-83
2021/04/09 12:13:54;;;;;;;;;;;;;;;20.73;23.44;98941.81;5084708;28;689;-83
2021/04/09 12:16:19;;;;;;;;;;;;;;;20.62;23.82;98935.41;5084892;28;1973;-83
2021/04/09 12:18:44;;;;;;;;;;;;;;;20.52;23.69;98937.13;5101799;28;984;-83
2021/04/09 12:21:10;;;;;;;;;;;;;;;20.20;24.20;98934.47;5101932;28;785;-83
2021/04/09 12:23:35;;;;;;;;;;;;;;;20.40;23.70;98933.94;5084348;28;968;-83
2021/04/09 12:26:01;;;;;;;;;;;;;;;20.46;23.80;98929.44;5084618;28;654;-83
2021/04/09 12:28:28;;;;;;;;;;;;;;;20.86;23.20;98938.47;5084712;28;598;-83
2021/04/09 12:30:53;;;;;;;;;;;;;;;21.07;22.83;98926.94;5102057;28;636;-83
2021/04/09 12:33:19;;;;;;;;;;;;;;;21.39;22.28;98931.50;5067543;28;1178;-83
2021/04/09 12:35:44;;;;;;;;;;;;;;;21.26;22.49;98945.38;5084351;28;1902;-83
2021/04/09 12:38:10;;;;;;;;;;;;;;;20.71;23.08;98937.78;5101756;28;923;-83
2021/04/09 12:40:35;;;;;;;;;;;;;;;20.47;23.53;98942.44;5066888;28;1393;-83
2021/04/09 12:43:01;;;;;;;;;;;;;;;20.37;23.70;98940.44;5050417;28;947;-82
2021/04/09 12:45:26;;;;;;;;;;;;;;;20.34;23.88;98935.59;5084167;28;650;-82
2021/04/09 12:47:52;;;;;;;;;;;;;;;21.04;22.92;98930.63;5084070;28;1062;-83
2021/04/09 12:50:17;;;;;;;;;;;;;;;21.30;22.44;98946.16;5083782;28;1243;-83
2021/04/09 12:52:42;;;;;;;;;;;;;;;21.03;22.65;98948.81;5067704;28;899;-83
2021/04/09 12:55:08;;;;;;;;;;;;;;;20.79;23.23;98936.50;5084082;28;807;-83
2021/04/09 12:57:34;;;;;;;;;;;;;;;20.47;23.40;98946.06;5083939;28;1910;-83
2021/04/09 12:59:59;;;;;;;;;;;;;;;20.59;23.35;98953.22;5067549;28;989;-83
2021/04/09 13:02:25;;;;;;;;;;;;;;;20.63;23.23;98948.34;5083520;28;911;-83
2021/04/09 13:04:50;;;;;;;;;;;;;;;20.40;23.51;98950.91;5101253;28;964;-83
2021/04/09 13:07:16;;;;;;;;;;;;;;;20.31;23.95;98954.19;5083719;28;1041;-83
2021/04/09 13:09:41;;;;;;;;;;;;;;;20.39;23.67;98949.31;5083996;28;697;-83
2021/04/09 13:12:07;;;;;;;;;;;;;;;20.36;23.73;98942.44;5083993;28;832;-83